Time;durP1;ratioP1;P1;durP2;ratioP2;P2;SDS_P1;SDS_P2;PMS_P1;PMS_P2;Temp;Humidity;BMP_temperature;BMP_pressure;BME280_temperature;BME280_humidity;BME280_pressure;Samples;Min_cycle;Max_cycle;Signal;HPM_P1;HPM_P2
2023/04/14 00:00:05;;;;;;;18.90;12.07;;;;;;;4.48;88.68;100780.94;4985055;28;20026;-75
2023/04/14 00:02:34;;;;;;;19.05;11.75;;;;;;;4.45;89.15;100788.06;4991155;28;20105;-75
2023/04/14 00:05:00;;;;;;;16.35;11.10;;;;;;;4.46;89.76;100780.16;4988477;28;20442;-75
2023/04/14 00:07:25;;;;;;;18.40;10.88;;;;;;;4.39;89.05;100778.75;4989665;28;20028;-76
2023/04/14 00:09:51;;;;;;;19.30;11.55;;;;;;;4.38;89.03;100775.31;4988024;28;20114;-74
2023/04/14 00:12:16;;;;;;;17.20;11.48;;;;;;;4.40;90.14;100778.72;4988767;28;20038;-76
2023/04/14 00:14:42;;;;;;;14.98;10.88;;;;;;;4.39;90.17;100782.19;4984538;28;20037;-75
2023/04/14 00:17:09;;;;;;;15.05;11.05;;;;;;;4.44;91.17;100781.16;4988090;28;20764;-75
2023/04/14 00:19:35;;;;;;;15.38;11.07;;;;;;;4.37;90.50;100775.38;4990151;28;20684;-75
2023/04/14 00:22:01;;;;;;;18.73;12.20;;;;;;;4.34;89.79;100778.97;4988994;28;20034;-75
2023/04/14 00:24:26;;;;;;;20.77;12.15;;;;;;;4.38;90.77;100779.66;4987776;28;20541;-75
2023/04/14 00:26:51;;;;;;;19.58;12.88;;;;;;;4.30;90.12;100777.44;4989030;28;20121;-74
2023/04/14 00:29:17;;;;;;;20.80;13.60;;;;;;;4.34;90.89;100786.81;4988932;28;20030;-75
2023/04/14 00:31:42;;;;;;;24.52;14.30;;;;;;;4.33;90.92;100784.28;4978401;28;20026;-75
2023/04/14 00:34:07;;;;;;;17.73;14.02;;;;;;;4.36;91.27;100786.72;4988431;28;20058;-75
2023/04/14 00:36:33;;;;;;;19.95;14.55;;;;;;;4.29;91.42;100782.72;4987874;28;20117;-76
2023/04/14 00:39:04;;;;;;;23.02;14.70;;;;;;;4.23;91.69;100783.88;4987739;28;20105;-75
2023/04/14 00:41:33;;;;;;;19.92;13.98;;;;;;;4.17;91.70;100784.19;4988245;28;20491;-76
2023/04/14 00:44:03;;;;;;;18.30;13.88;;;;;;;4.12;91.68;100790.53;4990062;28;20105;-77
2023/04/14 00:46:30;;;;;;;19.13;13.65;;;;;;;4.08;91.58;100788.09;4985103;28;20026;-77
2023/04/14 00:48:56;;;;;;;20.63;14.32;;;;;;;4.02;92.59;100792.75;4984527;28;20034;-77
2023/04/14 00:51:30;;;;;;;19.60;13.13;;;;;;;3.96;93.38;100793.00;4984052;28;20289;-77
2023/04/14 00:53:55;;;;;;;19.58;13.43;;;;;;;3.89;93.37;100789.84;5005268;28;20119;-77
2023/04/14 00:56:21;;;;;;;18.08;13.77;;;;;;;3.90;93.56;100786.34;4989804;28;20108;-77
2023/04/14 00:58:47;;;;;;;17.60;12.60;;;;;;;3.89;93.50;100796.81;4989118;28;20018;-77
2023/04/14 01:01:13;;;;;;;18.73;10.35;;;;;;;3.93;94.16;100795.75;4987602;28;20391;-77
2023/04/14 01:03:40;;;;;;;19.98;10.45;;;;;;;3.90;93.74;100801.09;5003914;28;20065;-77
2023/04/14 01:06:06;;;;;;;16.10;9.68;;;;;;;3.91;94.53;100800.19;4985456;28;20064;-77
2023/04/14 01:08:32;;;;;;;16.88;9.32;;;;;;;3.92;95.04;100801.88;4990331;28;20038;-77
2023/04/14 01:11:18;;;;;;;16.35;9.13;;;;;;;3.94;95.68;100807.84;4990737;28;20033;-74
2023/04/14 01:14:09;;;;;;;16.08;9.00;;;;;;;3.93;95.33;100813.97;4989387;28;20073;-77
2023/04/14 01:16:49;;;;;;;13.35;8.40;;;;;;;3.89;95.23;100817.66;4989503;28;20022;-77
2023/04/14 01:19:41;;;;;;;13.95;7.68;;;;;;;3.90;95.25;100816.72;4983713;28;20030;-77
2023/04/14 01:22:11;;;;;;;15.80;7.78;;;;;;;3.80;94.96;100815.47;4972301;28;20064;-75
2023/04/14 01:25:08;;;;;;;15.57;7.57;;;;;;;3.81;95.40;100809.34;4987813;28;20460;-75
2023/04/14 01:27:46;;;;;;;17.50;7.40;;;;;;;3.72;95.52;100814.06;4992257;28;20030;-76
2023/04/14 01:30:50;;;;;;;15.05;6.68;;;;;;;3.77;96.33;100811.25;4992515;28;20026;-75
2023/04/14 01:33:21;;;;;;;16.02;6.53;;;;;;;3.70;96.44;100813.31;4987204;28;20121;-75
2023/04/14 01:35:55;;;;;;;16.08;6.88;;;;;;;3.67;96.94;100813.44;4976239;28;20073;-75
2023/04/14 01:38:26;;;;;;;15.05;6.90;;;;;;;3.61;96.81;100811.13;5007922;28;20018;-75
2023/04/14 01:41:04;;;;;;;15.85;7.05;;;;;;;3.70;97.73;100818.50;4991391;28;20026;-75
2023/04/14 01:43:32;;;;;;;16.23;7.05;;;;;;;3.66;97.11;100824.78;5008399;28;20039;-75
2023/04/14 01:46:04;;;;;;;16.05;7.90;;;;;;;3.61;96.73;100816.34;4992064;28;20034;-75
2023/04/14 01:48:32;;;;;;;12.77;7.28;;;;;;;3.56;97.46;100815.66;4991953;28;20058;-75
2023/04/14 01:51:02;;;;;;;13.30;6.93;;;;;;;3.57;97.39;100819.13;4994216;28;20026;-77
2023/04/14 01:53:31;;;;;;;16.95;7.43;;;;;;;3.59;97.87;100827.69;5009078;28;20032;-77
2023/04/14 01:55:59;;;;;;;18.30;6.95;;;;;;;3.61;98.35;100816.34;4993943;28;20026;-77
2023/04/14 01:58:27;;;;;;;15.98;7.18;;;;;;;3.58;99.04;100826.84;5006290;28;20050;-77
2023/04/14 02:00:53;;;;;;;12.55;6.82;;;;;;;3.59;98.60;100820.72;4993400;28;20114;-76
2023/04/14 02:03:20;;;;;;;13.68;7.10;;;;;;;3.57;98.32;100825.16;4990929;28;20125;-76
2023/04/14 02:05:47;;;;;;;16.02;7.13;;;;;;;3.54;98.26;100825.31;4991869;28;20519;-76
2023/04/14 02:08:15;;;;;;;14.85;6.63;;;;;;;3.57;99.28;100826.91;4991779;28;20072;-76
2023/04/14 02:10:44;;;;;;;14.35;6.10;;;;;;;3.57;99.20;100826.91;4992479;28;20430;-77
2023/04/14 02:13:12;;;;;;;14.70;6.45;;;;;;;3.58;98.75;100826.84;4981333;28;20376;-76
2023/04/14 02:15:38;;;;;;;11.63;5.72;;;;;;;3.52;98.94;100819.31;4977939;28;20022;-76
2023/04/14 02:18:06;;;;;;;12.23;6.75;;;;;;;3.46;98.81;100822.22;4989319;28;20109;-76
2023/04/14 02:20:32;;;;;;;12.90;6.18;;;;;;;3.49;99.08;100826.44;4991307;28;20399;-75
2023/04/14 02:23:00;;;;;;;14.10;5.97;;;;;;;3.41;99.37;100824.19;4990369;28;20434;-75
2023/04/14 02:25:31;;;;;;;13.90;6.15;;;;;;;3.50;100.00;100838.53;4989545;28;20042;-75
2023/04/14 02:28:08;;;;;;;11.20;5.90;;;;;;;3.47;100.00;100836.91;4980227;28;20041;-75
2023/04/14 02:30:52;;;;;;;14.48;5.72;;;;;;;3.45;99.87;100836.97;4988426;28;20022;-75
2023/04/14 02:33:28;;;;;;;13.45;5.75;;;;;;;3.43;99.41;100836.19;4970356;28;20101;-75
2023/04/14 02:36:08;;;;;;;13.65;5.80;;;;;;;3.45;100.00;100836.13;5005767;28;20033;-75
2023/04/14 02:38:38;;;;;;;12.63;5.25;;;;;;;3.40;99.52;100836.34;4989082;28;20018;-75
2023/04/14 02:41:11;;;;;;;15.38;5.70;;;;;;;3.39;100.00;100837.25;4991066;28;20487;-75
2023/04/14 02:43:48;;;;;;;12.70;5.35;;;;;;;3.35;100.00;100840.06;4991011;28;20061;-76
2023/04/14 02:46:17;;;;;;;11.32;5.22;;;;;;;3.29;99.89;100841.19;4989303;28;20028;-75
2023/04/14 02:48:46;;;;;;;11.77;5.32;;;;;;;3.27;99.81;100844.75;4987749;28;20027;-75
2023/04/14 02:51:13;;;;;;;12.05;5.32;;;;;;;3.23;99.61;100858.81;4985991;28;20498;-75
2023/04/14 02:53:39;;;;;;;14.07;5.40;;;;;;;3.19;99.94;100855.47;4990968;28;20084;-75
2023/04/14 02:56:06;;;;;;;13.57;5.85;;;;;;;3.21;100.00;100852.81;4990545;28;20023;-77
2023/04/14 02:58:32;;;;;;;13.32;5.50;;;;;;;3.28;100.00;100843.84;4991072;28;20033;-77
2023/04/14 03:01:01;;;;;;;15.00;5.68;;;;;;;3.23;100.00;100841.44;4991692;28;20022;-76
2023/04/14 03:03:28;;;;;;;12.93;5.47;;;;;;;3.20;100.00;100845.91;5006451;28;20026;-76
2023/04/14 03:05:55;;;;;;;14.23;5.97;;;;;;;3.17;100.00;100857.28;4989826;28;20526;-76
2023/04/14 03:08:22;;;;;;;12.65;5.88;;;;;;;3.19;100.00;100854.63;4990993;28;20022;-77
2023/04/14 03:10:50;;;;;;;10.60;4.95;;;;;;;3.21;100.00;100852.81;4991029;28;20407;-76
2023/04/14 03:13:17;;;;;;;14.75;5.38;;;;;;;3.17;100.00;100861.63;4990964;28;20022;-76
2023/04/14 03:15:43;;;;;;;11.65;5.63;;;;;;;3.12;100.00;100854.88;4991367;28;20019;-76
2023/04/14 03:18:11;;;;;;;13.13;5.95;;;;;;;3.15;100.00;100851.31;4990083;28;20018;-76
2023/04/14 03:20:39;;;;;;;11.35;5.55;;;;;;;3.17;100.00;100851.25;5003814;28;20475;-75
2023/04/14 03:23:10;;;;;;;13.07;6.25;;;;;;;3.19;100.00;100855.47;4989005;28;20026;-75
2023/04/14 03:25:39;;;;;;;12.88;6.53;;;;;;;3.21;100.00;100850.22;4972457;28;20031;-75
2023/04/14 03:28:12;;;;;;;17.17;6.85;;;;;;;3.12;100.00;100854.03;4975922;28;20090;-75
2023/04/14 03:30:40;;;;;;;;;;;;;;;3.24;100.00;100855.28;4991526;28;20034;-75
2023/04/14 03:33:11;;;;;;;13.70;5.88;;;;;;;3.08;100.00;100861.13;4990271;28;20571;-76
2023/04/14 03:35:36;;;;;;;13.13;5.88;;;;;;;3.12;100.00;100860.09;4989379;28;20026;-75
2023/04/14 03:38:09;;;;;;;11.05;5.47;;;;;;;3.13;100.00;100861.78;4990376;28;20022;-75
2023/04/14 03:40:39;;;;;;;14.23;6.43;;;;;;;3.13;100.00;100866.97;4990249;28;20022;-75
2023/04/14 03:43:08;;;;;;;13.18;5.55;;;;;;;3.10;100.00;100867.09;4975988;28;20047;-75
2023/04/14 03:45:37;;;;;;;14.45;5.65;;;;;;;3.10;100.00;100867.09;4969999;28;20039;-75
2023/04/14 03:48:04;;;;;;;19.85;6.18;;;;;;;3.06;100.00;100864.72;4969820;28;20027;-77
2023/04/14 03:50:35;;;;;;;18.20;6.95;;;;;;;3.02;100.00;100868.34;4975558;28;20033;-75
2023/04/14 03:53:01;;;;;;;15.07;6.07;;;;;;;3.05;100.00;100869.06;4988892;28;20023;-75
2023/04/14 03:55:31;;;;;;;14.15;6.13;;;;;;;3.00;100.00;100860.63;4989009;28;20030;-75
2023/04/14 03:57:58;;;;;;;13.60;5.93;;;;;;;2.96;100.00;100869.47;4990395;28;20479;-75
2023/04/14 04:00:25;;;;;;;10.63;5.90;;;;;;;2.97;100.00;100865.94;4979654;28;20423;-75
2023/04/14 04:02:52;;;;;;;14.18;5.75;;;;;;;2.96;100.00;100879.84;4970089;28;20031;-75
2023/04/14 04:05:20;;;;;;;14.85;6.20;;;;;;;2.93;100.00;100872.19;4970641;28;20030;-74
2023/04/14 04:07:46;;;;;;;15.13;6.15;;;;;;;2.92;100.00;100883.50;4985200;28;20177;-75
2023/04/14 04:10:13;;;;;;;12.35;5.55;;;;;;;2.95;100.00;100880.75;4987756;28;20034;-77
2023/04/14 04:12:42;;;;;;;14.95;6.20;;;;;;;2.96;100.00;100879.00;5006466;28;20501;-75
2023/04/14 04:15:08;;;;;;;13.23;6.32;;;;;;;2.91;100.00;100881.81;4988996;28;20037;-75
2023/04/14 04:17:34;;;;;;;12.93;5.93;;;;;;;2.93;100.00;100879.97;4989250;28;20018;-75
2023/04/14 04:20:12;;;;;;;14.32;5.72;;;;;;;2.98;100.00;100880.63;4989987;28;20058;-75
2023/04/14 04:22:40;;;;;;;14.85;5.95;;;;;;;2.95;100.00;100883.38;4990596;28;20029;-75
2023/04/14 04:25:08;;;;;;;11.60;6.13;;;;;;;2.92;100.00;100872.25;4990034;28;20033;-75
2023/04/14 04:27:34;;;;;;;14.23;5.82;;;;;;;2.92;100.00;100878.28;4990142;28;20030;-75
2023/04/14 04:30:08;;;;;;;13.63;5.97;;;;;;;2.96;100.00;100882.44;5005683;28;20383;-75
2023/04/14 04:32:35;;;;;;;13.05;5.63;;;;;;;2.99;100.00;100882.31;4988038;28;20033;-75
2023/04/14 04:35:02;;;;;;;13.75;5.15;;;;;;;2.94;100.00;100880.81;4976301;28;20026;-75
2023/04/14 04:37:32;;;;;;;11.60;5.22;;;;;;;2.92;100.00;100880.91;4987814;28;20117;-75
2023/04/14 04:39:57;;;;;;;12.13;5.75;;;;;;;2.92;100.00;100887.84;4986576;28;20387;-75
2023/04/14 04:42:23;;;;;;;16.13;6.10;;;;;;;2.95;100.00;100882.50;4973706;28;20046;-75
2023/04/14 04:44:49;;;;;;;16.67;6.13;;;;;;;2.94;100.00;100880.81;4985779;28;20030;-75
2023/04/14 04:47:15;;;;;;;11.88;5.50;;;;;;;2.91;100.00;100880.97;4989548;28;20114;-78
2023/04/14 04:49:40;;;;;;;13.35;6.05;;;;;;;2.90;100.00;100887.91;4982782;28;20105;-76
2023/04/14 04:52:05;;;;;;;14.63;6.10;;;;;;;2.98;100.00;100883.22;4969400;28;20031;-75
2023/04/14 04:54:32;;;;;;;13.70;6.20;;;;;;;3.04;100.00;100898.56;4988039;28;20483;-75
2023/04/14 04:56:58;;;;;;;13.50;5.80;;;;;;;3.05;100.00;100892.44;4987576;28;20376;-75
2023/04/14 04:59:24;;;;;;;18.45;6.65;;;;;;;3.07;100.00;100888.03;4986800;28;20030;-77
2023/04/14 05:01:51;;;;;;;19.92;6.68;;;;;;;3.01;100.00;100888.28;4985172;28;20052;-76
2023/04/14 05:04:17;;;;;;;19.00;6.50;;;;;;;2.97;100.00;100881.53;4989170;28;20030;-75
2023/04/14 05:06:42;;;;;;;14.25;6.05;;;;;;;3.00;100.00;100886.59;4988499;28;20020;-75
2023/04/14 05:09:08;;;;;;;13.43;5.90;;;;;;;3.00;100.00;100877.97;4988338;28;20027;-76
2023/04/14 05:11:34;;;;;;;12.70;5.80;;;;;;;3.00;100.00;100885.75;4989322;28;20027;-76
2023/04/14 05:14:05;;;;;;;15.98;5.72;;;;;;;3.03;100.00;100880.44;4989248;28;20037;-76
2023/04/14 05:16:39;;;;;;;13.90;5.70;;;;;;;3.04;100.00;100884.72;4990004;28;20427;-77
2023/04/14 05:19:04;;;;;;;15.07;5.88;;;;;;;3.07;100.00;100882.84;4984025;28;20034;-75
2023/04/14 05:21:30;;;;;;;12.32;5.75;;;;;;;3.08;100.00;100879.31;4970062;28;20074;-76
2023/04/14 05:23:55;;;;;;;12.65;6.35;;;;;;;3.21;100.00;100881.44;4970750;28;20074;-76
2023/04/14 05:26:21;;;;;;;17.65;7.18;;;;;;;3.25;100.00;100872.59;4992740;28;20041;-76
2023/04/14 05:28:46;;;;;;;12.32;5.90;;;;;;;3.25;100.00;100882.97;4989843;28;20030;-76
2023/04/14 05:31:11;;;;;;;12.82;6.20;;;;;;;3.46;100.00;100875.06;4988184;28;20474;-76
2023/04/14 05:33:37;;;;;;;15.98;6.05;;;;;;;3.88;100.00;100876.66;4973772;28;20027;-75
2023/04/14 05:36:03;;;;;;;11.52;5.53;;;;;;;4.29;100.00;100876.50;4969823;28;20023;-76
2023/04/14 05:38:28;;;;;;;13.27;5.40;;;;;;;4.49;100.00;100872.94;5001314;28;20062;-76
2023/04/14 05:40:57;;;;;;;15.60;5.53;;;;;;;4.75;100.00;100879.47;4969857;28;20022;-75
2023/04/14 05:43:22;;;;;;;13.30;5.20;;;;;;;5.11;98.36;100872.44;4982871;28;20165;-75
2023/04/14 05:45:48;;;;;;;14.13;5.30;;;;;;;5.20;97.66;100876.31;4988511;28;20113;-75
2023/04/14 05:48:15;;;;;;;12.20;5.10;;;;;;;5.43;95.74;100870.78;4987998;28;20372;-75
2023/04/14 05:50:45;;;;;;;12.60;5.32;;;;;;;5.61;95.29;100877.66;4988311;28;20026;-75
2023/04/14 05:53:11;;;;;;;9.88;4.82;;;;;;;5.60;94.73;100875.97;4968355;28;20055;-75
2023/04/14 05:55:38;;;;;;;11.90;4.65;;;;;;;5.83;93.66;100866.91;4969853;28;20113;-75
2023/04/14 05:58:04;;;;;;;10.38;5.10;;;;;;;5.83;93.11;100872.13;4969491;28;20105;-75
2023/04/14 06:00:34;;;;;;;13.65;4.80;;;;;;;5.86;92.80;100873.72;4988363;28;20126;-74
2023/04/14 06:03:02;;;;;;;14.20;5.22;;;;;;;5.74;92.62;100874.38;4987278;28;20088;-75
2023/04/14 06:05:28;;;;;;;8.15;4.55;;;;;;;5.60;92.56;100878.59;4986150;28;20022;-75
2023/04/14 06:07:55;;;;;;;13.02;5.10;;;;;;;5.74;93.52;100872.63;4987662;28;20026;-75
2023/04/14 06:10:20;;;;;;;11.88;5.15;;;;;;;5.72;92.87;100878.84;5001972;28;20042;-74
2023/04/14 06:12:46;;;;;;;13.77;5.13;;;;;;;5.66;92.68;100877.41;5005236;28;20044;-75
2023/04/14 06:15:12;;;;;;;12.02;4.90;;;;;;;5.49;92.90;100883.50;4990675;28;20491;-75
2023/04/14 06:17:38;;;;;;;13.02;5.00;;;;;;;5.46;94.11;100888.88;4990853;28;20026;-75
2023/04/14 06:20:05;;;;;;;10.88;5.40;;;;;;;5.45;94.38;100887.19;4993141;28;20049;-75
2023/04/14 06:22:31;;;;;;;13.40;4.88;;;;;;;5.56;93.88;100877.03;4988681;28;20105;-75
2023/04/14 06:24:56;;;;;;;10.80;4.40;;;;;;;5.93;93.66;100877.72;4987313;28;20091;-75
2023/04/14 06:27:23;;;;;;;12.18;5.28;;;;;;;6.14;93.39;100879.16;4991429;28;20475;-75
2023/04/14 06:29:50;;;;;;;11.80;4.57;;;;;;;6.08;91.60;100871.66;4991959;28;20083;-75
2023/04/14 06:32:16;;;;;;;10.05;4.60;;;;;;;6.13;90.86;100874.03;4992468;28;20052;-74
2023/04/14 06:34:41;;;;;;;14.60;5.00;;;;;;;6.35;91.39;100863.22;5008133;28;20030;-74
2023/04/14 06:37:06;;;;;;;11.73;4.50;;;;;;;6.88;90.96;100863.63;4991457;28;20022;-75
2023/04/14 06:39:32;;;;;;;14.88;5.30;;;;;;;6.61;88.53;100854.75;4989733;28;20391;-74
2023/04/14 06:41:57;;;;;;;15.35;4.72;;;;;;;6.67;88.69;100859.63;5005818;28;20042;-74
2023/04/14 06:44:23;;;;;;;14.20;5.25;;;;;;;7.04;88.65;100849.63;4992152;28;20077;-74
2023/04/14 06:46:48;;;;;;;11.27;4.45;;;;;;;7.00;87.27;100853.38;4987689;28;20041;-74
2023/04/14 06:49:16;;;;;;;11.52;4.30;;;;;;;7.30;86.20;100848.94;4994226;28;20041;-74
2023/04/14 06:51:41;;;;;;;9.05;4.03;;;;;;;7.49;84.22;100848.63;5002160;28;20077;-74
2023/04/14 06:54:07;;;;;;;15.55;4.40;;;;;;;7.63;83.03;100848.66;4998883;28;20037;-75
2023/04/14 06:56:32;;;;;;;7.47;3.83;;;;;;;7.86;82.69;100852.44;5011561;28;20076;-75
2023/04/14 06:59:03;;;;;;;8.85;4.28;;;;;;;8.32;81.99;100850.38;4995559;28;20022;-75
2023/04/14 07:01:28;;;;;;;9.20;3.78;;;;;;;8.33;80.56;100838.09;5005380;28;20078;-75
2023/04/14 07:03:54;;;;;;;9.45;4.00;;;;;;;8.46;79.40;100839.03;4991498;28;20092;-75
2023/04/14 07:06:20;;;;;;;9.57;4.20;;;;;;;8.66;78.19;100841.19;4990703;28;20498;-74
2023/04/14 07:08:45;;;;;;;12.35;4.63;;;;;;;8.85;77.35;100845.22;5002257;28;20049;-74
2023/04/14 07:11:11;;;;;;;11.93;4.32;;;;;;;8.96;76.40;100840.94;5002472;28;20072;-75
2023/04/14 07:13:38;;;;;;;10.45;4.00;;;;;;;9.11;76.33;100836.41;5010840;28;20029;-74
2023/04/14 07:16:05;;;;;;;10.48;4.22;;;;;;;9.28;74.94;100837.91;5001505;28;20069;-75
2023/04/14 07:18:31;;;;;;;12.65;3.97;;;;;;;9.33;73.35;100833.19;4991643;28;20049;-75
2023/04/14 07:20:58;;;;;;;9.10;3.78;;;;;;;9.45;73.81;100826.22;4991545;28;20066;-74
2023/04/14 07:23:24;;;;;;;10.27;3.80;;;;;;;9.56;72.58;100826.31;4989380;28;20045;-75
2023/04/14 07:25:56;;;;;;;9.80;3.45;;;;;;;9.84;72.95;100823.44;4992400;28;20127;-76
2023/04/14 07:28:23;;;;;;;11.45;3.90;;;;;;;9.91;69.69;100822.03;5009003;28;20033;-75
2023/04/14 07:30:49;;;;;;;8.40;3.50;;;;;;;9.96;69.22;100827.78;5004915;28;20025;-75
2023/04/14 07:33:19;;;;;;;8.52;3.35;;;;;;;10.15;68.59;100831.75;5010308;28;20041;-74
2023/04/14 07:35:54;;;;;;;7.95;2.72;;;;;;;10.12;66.89;100821.44;4988411;28;20034;-76
2023/04/14 07:38:20;;;;;;;6.18;3.05;;;;;;;10.25;66.99;100817.84;4990502;28;20690;-76
2023/04/14 07:40:45;;;;;;;10.05;3.85;;;;;;;10.34;66.80;100819.78;4987477;28;20018;-75
2023/04/14 07:43:11;;;;;;;9.90;3.08;;;;;;;10.43;63.94;100818.31;5005435;28;20038;-75
2023/04/14 07:45:38;;;;;;;9.93;3.60;;;;;;;10.49;64.08;100820.47;4999131;28;20033;-77
2023/04/14 07:48:04;;;;;;;8.00;3.80;;;;;;;10.66;64.68;100816.56;5005394;28;20042;-76
2023/04/14 07:50:33;;;;;;;9.00;3.22;;;;;;;10.87;64.04;100812.34;5010128;28;20041;-74
2023/04/14 07:52:58;;;;;;;8.80;3.92;;;;;;;11.09;63.56;100805.44;4996149;28;20030;-75
2023/04/14 07:55:24;;;;;;;8.50;3.22;;;;;;;11.32;62.88;100806.31;5005253;28;20032;-75
2023/04/14 07:57:51;;;;;;;8.38;3.10;;;;;;;11.44;62.14;100808.81;4990926;28;20092;-75
2023/04/14 08:00:17;;;;;;;5.68;2.92;;;;;;;11.49;59.38;100813.72;4985088;28;20034;-75
2023/04/14 08:02:43;;;;;;;6.78;2.78;;;;;;;11.54;60.29;100809.75;4970756;28;20026;-74
2023/04/14 08:05:13;;;;;;;4.68;2.45;;;;;;;11.67;59.16;100814.91;4979295;28;20038;-75
2023/04/14 08:07:39;;;;;;;6.25;2.50;;;;;;;11.70;57.69;100803.31;4990487;28;20427;-75
2023/04/14 08:10:04;;;;;;;7.93;2.20;;;;;;;11.75;58.78;100811.66;4988424;28;20037;-75
2023/04/14 08:12:30;;;;;;;5.40;2.10;;;;;;;11.83;56.78;100811.94;4986650;28;20038;-75
2023/04/14 08:14:56;;;;;;;4.32;2.30;;;;;;;11.89;57.10;100804.38;4989644;28;20030;-74
2023/04/14 08:17:22;;;;;;;6.10;2.10;;;;;;;12.00;57.27;100805.28;4987205;28;20034;-74
2023/04/14 08:19:47;;;;;;;6.32;2.20;;;;;;;12.20;57.11;100807.16;4987047;28;20065;-74
2023/04/14 08:22:12;;;;;;;4.72;2.20;;;;;;;12.23;56.84;100799.00;4988151;28;20113;-73
2023/04/14 08:24:42;;;;;;;4.63;2.05;;;;;;;12.36;56.25;100802.31;4988364;28;20118;-73
2023/04/14 08:27:08;;;;;;;5.38;2.30;;;;;;;12.61;56.00;100800.28;5003763;28;20021;-74
2023/04/14 08:29:34;;;;;;;7.40;2.30;;;;;;;12.79;55.25;100796.94;4999796;28;20077;-75
2023/04/14 08:32:04;;;;;;;7.28;2.22;;;;;;;12.76;53.44;100801.63;4987188;28;20033;-74
2023/04/14 08:34:33;;;;;;;4.50;1.90;;;;;;;12.69;54.21;100808.41;5004723;28;20021;-75
2023/04/14 08:37:00;;;;;;;5.75;1.88;;;;;;;12.77;53.43;100798.03;4998978;28;20481;-74
2023/04/14 08:39:26;;;;;;;5.93;1.88;;;;;;;12.93;54.20;100801.06;4989445;28;20026;-74
2023/04/14 08:41:52;;;;;;;6.22;2.22;;;;;;;13.02;52.01;100797.66;4989206;28;20058;-74
2023/04/14 08:44:17;;;;;;;5.10;1.95;;;;;;;13.18;53.59;100800.69;4989629;28;20173;-74
2023/04/14 08:46:45;;;;;;;5.05;1.75;;;;;;;13.44;53.13;100792.31;4989790;28;20395;-74
2023/04/14 08:49:19;;;;;;;4.82;2.08;;;;;;;13.77;52.36;100796.47;4987969;28;20041;-74
2023/04/14 08:51:47;;;;;;;6.07;2.30;;;;;;;13.86;51.09;100795.66;4988197;28;20027;-74
2023/04/14 08:54:14;;;;;;;6.60;1.90;;;;;;;13.87;51.17;100796.50;4988366;28;20030;-74
2023/04/14 08:56:41;;;;;;;9.88;2.33;;;;;;;13.99;51.42;100801.53;4989359;28;20111;-74
2023/04/14 08:59:10;;;;;;;9.30;1.85;;;;;;;14.26;50.70;100807.97;4989266;28;20631;-74
2023/04/14 09:01:37;;;;;;;5.50;1.90;;;;;;;14.17;49.29;100803.50;4989942;28;20054;-75
2023/04/14 09:04:05;;;;;;;4.32;1.92;;;;;;;14.29;49.86;100800.59;4990518;28;20026;-75
2023/04/14 09:06:35;;;;;;;5.43;2.20;;;;;;;14.23;48.93;100806.44;4989857;28;20081;-73
2023/04/14 09:09:07;;;;;;;5.25;1.80;;;;;;;14.24;48.91;100797.53;4990714;28;20022;-74
2023/04/14 09:11:33;;;;;;;7.55;1.98;;;;;;;14.42;49.79;100797.69;4987437;28;20037;-74
2023/04/14 09:14:02;;;;;;;6.38;1.80;;;;;;;14.65;48.79;100798.25;4991000;28;20068;-73
2023/04/14 09:16:29;;;;;;;6.80;2.20;;;;;;;14.72;49.27;100788.75;4990011;28;20483;-74
2023/04/14 09:18:56;;;;;;;6.78;2.10;;;;;;;14.56;48.76;100789.34;4988208;28;20475;-75
2023/04/14 09:21:23;;;;;;;3.92;1.70;;;;;;;14.43;49.63;100798.56;5003549;28;20410;-74
2023/04/14 09:23:48;;;;;;;3.38;1.50;;;;;;;14.30;49.73;100786.38;4988419;28;20034;-74
2023/04/14 09:26:15;;;;;;;4.95;1.85;;;;;;;14.50;49.86;100776.69;4987336;28;20082;-75
2023/04/14 09:28:40;;;;;;;4.55;1.50;;;;;;;14.66;49.16;100779.56;4988068;28;20423;-75
2023/04/14 09:31:07;;;;;;;5.55;1.75;;;;;;;14.83;48.45;100777.19;4989222;28;20018;-74
2023/04/14 09:33:37;;;;;;;6.65;2.00;;;;;;;15.15;49.05;100771.50;4989307;28;20030;-74
2023/04/14 09:36:03;;;;;;;5.18;1.90;;;;;;;15.19;46.98;100775.53;4988878;28;20038;-74
2023/04/14 09:38:39;;;;;;;7.78;2.08;;;;;;;15.34;47.85;100768.81;4989643;28;20541;-75
2023/04/14 09:41:05;;;;;;;5.15;2.10;;;;;;;15.22;47.17;100764.69;4988292;28;20018;-75
2023/04/14 09:43:30;;;;;;;6.22;2.10;;;;;;;14.95;47.90;100762.78;4988477;28;20110;-75
2023/04/14 09:46:02;;;;;;;7.43;2.08;;;;;;;15.27;47.51;100754.47;5006786;28;20121;-75
2023/04/14 09:48:28;;;;;;;5.20;1.70;;;;;;;15.64;45.55;100765.06;4990231;28;20499;-75
2023/04/14 09:51:05;;;;;;;3.92;1.73;;;;;;;15.76;46.05;100752.44;4990646;28;20061;-75
2023/04/14 09:53:35;;;;;;;4.68;2.03;;;;;;;15.77;45.88;100754.09;5008236;28;20037;-75
2023/04/14 09:56:03;;;;;;;6.28;1.85;;;;;;;15.85;44.57;100743.56;5008940;28;20022;-75
2023/04/14 09:58:36;;;;;;;5.88;2.08;;;;;;;16.65;43.42;100755.91;4993265;28;20034;-75
2023/04/14 10:01:15;;;;;;;4.03;1.52;;;;;;;17.58;41.40;100748.13;4989227;28;20463;-75
2023/04/14 10:03:45;;;;;;;5.10;1.90;;;;;;;18.41;37.11;100746.28;4992818;28;20010;-75
2023/04/14 10:06:19;;;;;;;4.03;1.80;;;;;;;18.85;37.52;100745.97;4993318;28;20049;-75
2023/04/14 10:08:50;;;;;;;5.28;1.75;;;;;;;19.98;35.23;100740.16;4992626;28;20065;-75
2023/04/14 10:11:18;;;;;;;3.17;1.55;;;;;;;20.89;32.76;100730.44;4991550;28;20026;-75
2023/04/14 10:13:49;;;;;;;7.72;2.00;;;;;;;19.84;33.70;100724.91;4991434;28;20061;-75
2023/04/14 10:16:15;;;;;;;5.30;1.80;;;;;;;18.26;36.06;100724.81;4989955;28;20511;-74
2023/04/14 10:18:41;;;;;;;4.63;1.75;;;;;;;16.89;38.95;100715.41;4992290;28;20387;-75
2023/04/14 10:21:07;;;;;;;4.75;1.80;;;;;;;17.59;39.26;100723.16;5006451;28;20034;-75
2023/04/14 10:23:37;;;;;;;5.95;1.80;;;;;;;18.41;37.16;100719.66;4991534;28;20038;-75
2023/04/14 10:26:07;;;;;;;5.47;1.98;;;;;;;17.47;39.01;100719.97;4991040;28;20061;-75
2023/04/14 10:28:44;;;;;;;6.15;2.00;;;;;;;17.34;40.14;100719.63;4990760;28;20471;-75
2023/04/14 10:31:25;;;;;;;6.65;1.90;;;;;;;18.74;36.35;100705.31;4991679;28;20022;-75
2023/04/14 10:33:51;;;;;;;4.32;1.95;;;;;;;18.30;35.49;100714.66;4993082;28;20022;-75
2023/04/14 10:36:24;;;;;;;4.60;1.95;;;;;;;18.60;36.73;100714.00;4990287;28;20030;-75
2023/04/14 10:39:06;;;;;;;4.88;1.77;;;;;;;19.75;35.92;100703.78;4990093;28;20036;-75
2023/04/14 10:41:57;;;;;;;6.05;2.05;;;;;;;19.77;37.42;100702.59;4978960;28;20094;-75
2023/04/14 10:44:28;;;;;;;5.57;1.85;;;;;;;19.31;35.01;100691.81;4989456;28;20581;-75
2023/04/14 10:46:55;;;;;;;5.22;1.90;;;;;;;18.58;35.40;100694.66;4992975;28;20065;-75
2023/04/14 10:49:31;;;;;;;3.28;1.50;;;;;;;17.57;38.38;100698.56;5007203;28;20026;-75
2023/04/14 10:52:05;;;;;;;6.85;2.00;;;;;;;16.78;39.19;100687.25;4984373;28;20034;-75
2023/04/14 10:54:52;;;;;;;4.50;1.70;;;;;;;16.31;42.15;100694.72;4976203;28;20400;-75
2023/04/14 10:57:21;;;;;;;8.05;1.48;;;;;;;15.94;41.23;100687.75;4987425;28;20057;-77
2023/04/14 10:59:52;;;;;;;5.85;1.90;;;;;;;15.40;40.95;100683.38;5006503;28;20062;-76
2023/04/14 11:02:35;;;;;;;7.05;1.70;;;;;;;15.15;42.93;100684.03;4990034;28;20386;-76
2023/04/14 11:05:10;;;;;;;5.60;1.90;;;;;;;14.80;43.67;100690.03;4991496;28;20018;-75
2023/04/14 11:07:50;;;;;;;5.25;1.73;;;;;;;14.77;43.99;100690.34;4990182;28;20063;-75
2023/04/14 11:10:16;;;;;;;4.78;1.73;;;;;;;14.99;43.57;100679.38;4991691;28;20026;-75
2023/04/14 11:12:43;;;;;;;5.82;1.90;;;;;;;15.02;41.72;100695.81;5006221;28;20360;-75
2023/04/14 11:15:09;;;;;;;6.00;1.83;;;;;;;15.16;42.56;100685.72;4991511;28;20396;-76
2023/04/14 11:17:39;;;;;;;6.22;1.90;;;;;;;15.50;41.20;100680.66;4990683;28;20022;-75
2023/04/14 11:20:18;;;;;;;5.55;1.80;;;;;;;15.97;42.22;100676.00;4990083;28;20034;-75
2023/04/14 11:22:46;;;;;;;6.35;1.77;;;;;;;15.93;40.78;100672.81;4989815;28;20014;-76
2023/04/14 11:25:20;;;;;;;5.68;1.80;;;;;;;16.05;40.15;100669.97;4995827;28;20541;-75
2023/04/14 11:27:49;;;;;;;3.80;1.50;;;;;;;15.64;39.96;100677.53;4996492;28;20060;-75